Time;durP1;ratioP1;P1;durP2;ratioP2;P2;SDS_P1;SDS_P2;PMS_P1;PMS_P2;Temp;Humidity;BMP_temperature;BMP_pressure;BME280_temperature;BME280_humidity;BME280_pressure;Samples;Min_cycle;Max_cycle;Signal;HPM_P1;HPM_P2
2023/04/26 00:00:36;;;;;;;4.13;2.57;;;;;;;;;;5050598;28;20200;-86
2023/04/26 00:03:03;;;;;;;3.87;2.33;;;;;;;;;;5049942;28;20211;-86
2023/04/26 00:05:31;;;;;;;3.90;2.33;;;;;;;;;;5050877;28;20253;-86
2023/04/26 00:07:58;;;;;;;3.23;2.30;;;;;;;;;;5050045;28;20300;-86
2023/04/26 00:10:25;;;;;;;3.50;2.37;;;;;;;;;;5046187;28;20235;-86
2023/04/26 00:12:52;;;;;;;4.13;2.47;;;;;;;;;;5050363;28;20200;-86
2023/04/26 00:15:21;;;;;;;5.83;2.90;;;;;;;;;;5054905;28;20212;-86
2023/04/26 00:17:49;;;;;;;3.00;2.10;;;;;;;;;;5049624;28;20199;-86
2023/04/26 00:20:16;;;;;;;5.97;2.40;;;;;;;;;;5056696;28;20203;-86
2023/04/26 00:22:44;;;;;;;4.40;2.60;;;;;;;;;;5039162;28;20231;-86
2023/04/26 00:25:12;;;;;;;4.40;2.60;;;;;;;;;;5050225;28;20214;-86
2023/04/26 00:27:40;;;;;;;3.37;2.53;;;;;;;;;;5048474;28;20212;-86
2023/04/26 00:30:08;;;;;;;4.70;2.87;;;;;;;;;;5062192;28;20200;-86
2023/04/26 00:32:36;;;;;;;3.93;2.40;;;;;;;;;;5053266;28;20231;-86
2023/04/26 00:35:05;;;;;;;3.80;2.70;;;;;;;;;;5046155;28;20207;-86
2023/04/26 00:37:32;;;;;;;3.87;2.63;;;;;;;;;;5048602;28;20218;-86
2023/04/26 00:39:59;;;;;;;4.43;2.80;;;;;;;;;;5047847;28;20259;-87
2023/04/26 00:42:28;;;;;;;5.73;2.60;;;;;;;;;;5048772;28;20286;-86
2023/04/26 00:44:56;;;;;;;4.73;3.00;;;;;;;;;;5070945;28;20263;-86
2023/04/26 00:47:23;;;;;;;3.17;2.60;;;;;;;;;;5049708;28;20207;-87
2023/04/26 00:49:52;;;;;;;3.33;2.30;;;;;;;;;;5051055;28;20208;-86
2023/04/26 00:52:19;;;;;;;4.17;2.70;;;;;;;;;;5044369;28;20199;-86
2023/04/26 00:54:47;;;;;;;4.63;2.67;;;;;;;;;;5051285;28;20214;-86
2023/04/26 00:57:15;;;;;;;3.30;2.30;;;;;;;;;;5050717;28;20211;-86
2023/04/26 00:59:42;;;;;;;4.67;2.37;;;;;;;;;;5045074;28;20200;-86
2023/04/26 01:02:09;;;;;;;3.97;2.97;;;;;;;;;;5048897;28;20207;-86
2023/04/26 01:04:38;;;;;;;3.67;2.60;;;;;;;;;;5018753;28;20219;-86
2023/04/26 01:07:07;;;;;;;4.77;2.90;;;;;;;;;;5049198;28;20227;-86
2023/04/26 01:09:34;;;;;;;4.90;2.67;;;;;;;;;;5043868;28;20200;-86
2023/04/26 01:12:02;;;;;;;3.37;2.23;;;;;;;;;;5049503;28;20206;-86
2023/04/26 01:14:30;;;;;;;5.63;2.67;;;;;;;;;;5045269;28;20211;-86
2023/04/26 01:16:57;;;;;;;4.77;2.63;;;;;;;;;;5055183;28;20203;-86
2023/04/26 01:19:24;;;;;;;3.70;2.47;;;;;;;;;;5038721;28;20210;-86
2023/04/26 01:21:52;;;;;;;3.20;2.60;;;;;;;;;;5039731;28;20230;-86
2023/04/26 01:24:20;;;;;;;4.10;2.73;;;;;;;;;;5050905;28;20223;-86
2023/04/26 01:26:48;;;;;;;3.77;2.20;;;;;;;;;;5047808;28;20204;-86
2023/04/26 01:29:16;;;;;;;3.77;2.50;;;;;;;;;;5049298;28;20195;-86
2023/04/26 01:31:43;;;;;;;5.27;2.60;;;;;;;;;;5042888;28;20232;-86
2023/04/26 01:34:10;;;;;;;3.47;2.20;;;;;;;;;;5045874;28;20291;-86
2023/04/26 01:36:38;;;;;;;4.63;2.30;;;;;;;;;;5051951;28;20203;-86
2023/04/26 01:39:05;;;;;;;3.23;2.33;;;;;;;;;;5046891;28;20204;-86
2023/04/26 01:41:34;;;;;;;4.03;2.43;;;;;;;;;;5045686;28;20259;-87
2023/04/26 01:44:01;;;;;;;4.67;2.60;;;;;;;;;;5044961;28;20224;-86
2023/04/26 01:46:28;;;;;;;5.13;2.83;;;;;;;;;;5040754;28;20211;-86
2023/04/26 01:48:56;;;;;;;3.83;2.30;;;;;;;;;;5043109;28;20226;-86
2023/04/26 01:51:23;;;;;;;5.07;2.67;;;;;;;;;;5044139;28;20202;-86
2023/04/26 01:53:50;;;;;;;3.63;2.87;;;;;;;;;;5047605;28;20203;-86
2023/04/26 01:56:18;;;;;;;3.23;2.40;;;;;;;;;;5051230;28;20587;-86
2023/04/26 01:58:47;;;;;;;2.83;2.43;;;;;;;;;;5052284;28;20290;-86
2023/04/26 02:01:14;;;;;;;3.00;2.10;;;;;;;;;;5036167;28;20210;-87
2023/04/26 02:03:41;;;;;;;3.83;2.40;;;;;;;;;;5049248;28;20215;-86
2023/04/26 02:06:09;;;;;;;4.67;2.80;;;;;;;;;;5046001;28;20299;-86
2023/04/26 02:08:36;;;;;;;3.33;2.33;;;;;;;;;;5049105;28;20203;-86
2023/04/26 02:11:03;;;;;;;5.43;2.40;;;;;;;;;;5046483;28;20238;-86
2023/04/26 02:13:30;;;;;;;3.33;2.53;;;;;;;;;;5044692;28;20204;-86
2023/04/26 02:15:59;;;;;;;4.50;2.00;;;;;;;;;;5046753;28;20273;-86
2023/04/26 02:18:28;;;;;;;4.47;2.40;;;;;;;;;;5049110;28;20204;-86
2023/04/26 02:20:55;;;;;;;4.13;2.73;;;;;;;;;;5046231;28;20287;-86
2023/04/26 02:23:23;;;;;;;3.50;1.97;;;;;;;;;;5047924;28;20300;-86
2023/04/26 02:25:51;;;;;;;4.33;2.37;;;;;;;;;;5043407;28;20196;-86
2023/04/26 02:28:18;;;;;;;3.30;2.10;;;;;;;;;;5041979;28;20212;-86
2023/04/26 02:30:45;;;;;;;2.80;2.20;;;;;;;;;;5045460;28;20290;-86
2023/04/26 02:33:14;;;;;;;4.20;2.27;;;;;;;;;;5046106;28;20242;-86
2023/04/26 02:35:42;;;;;;;3.63;2.13;;;;;;;;;;5048242;28;20203;-86
2023/04/26 02:38:09;;;;;;;5.10;2.50;;;;;;;;;;5046863;28;20204;-86
2023/04/26 02:40:36;;;;;;;6.47;3.07;;;;;;;;;;5046170;28;20200;-86
2023/04/26 02:43:04;;;;;;;3.47;2.30;;;;;;;;;;5050068;28;20290;-86
2023/04/26 02:45:31;;;;;;;2.87;2.37;;;;;;;;;;5050937;28;20204;-86
2023/04/26 02:47:58;;;;;;;3.43;2.07;;;;;;;;;;5051856;28;20500;-86
2023/04/26 02:50:30;;;;;;;3.27;2.30;;;;;;;;;;5044050;28;20204;-86
2023/04/26 02:52:57;;;;;;;4.33;2.57;;;;;;;;;;5045524;28;20263;-86
2023/04/26 02:55:24;;;;;;;3.20;2.20;;;;;;;;;;5052251;28;20218;-86
2023/04/26 02:57:53;;;;;;;5.70;3.30;;;;;;;;;;5039434;28;20235;-86
2023/04/26 03:00:21;;;;;;;5.87;2.63;;;;;;;;;;5039614;28;20215;-86
2023/04/26 03:02:48;;;;;;;5.80;2.33;;;;;;;;;;5043997;28;20227;-86
2023/04/26 03:05:15;;;;;;;6.23;2.70;;;;;;;;;;5048192;28;20222;-85
2023/04/26 03:07:44;;;;;;;4.30;2.47;;;;;;;;;;5047000;28;20212;-86
2023/04/26 03:10:11;;;;;;;2.83;2.10;;;;;;;;;;5049828;28;20211;-86
2023/04/26 03:12:39;;;;;;;6.87;2.60;;;;;;;;;;5042175;28;20203;-86
2023/04/26 03:15:06;;;;;;;6.40;2.40;;;;;;;;;;5042436;28;20225;-86
2023/04/26 03:17:33;;;;;;;3.67;2.27;;;;;;;;;;5037021;28;20199;-86
2023/04/26 03:20:01;;;;;;;4.97;2.40;;;;;;;;;;5041289;28;20195;-86
2023/04/26 03:22:28;;;;;;;3.60;2.53;;;;;;;;;;5056182;28;20203;-86
2023/04/26 03:24:57;;;;;;;3.93;2.57;;;;;;;;;;5042984;28;20232;-86
2023/04/26 03:27:24;;;;;;;5.37;2.57;;;;;;;;;;5043593;28;20206;-86
2023/04/26 03:29:51;;;;;;;4.47;2.43;;;;;;;;;;5037134;28;20207;-86
2023/04/26 03:32:19;;;;;;;3.57;2.27;;;;;;;;;;5043668;28;20235;-86
2023/04/26 03:34:47;;;;;;;4.27;2.40;;;;;;;;;;5042527;28;20235;-86
2023/04/26 03:37:15;;;;;;;5.40;2.77;;;;;;;;;;5039549;28;20318;-86
2023/04/26 03:39:42;;;;;;;4.53;2.70;;;;;;;;;;5045454;28;20226;-86
2023/04/26 03:42:11;;;;;;;3.90;2.90;;;;;;;;;;5045585;28;20204;-87
2023/04/26 03:44:38;;;;;;;5.07;2.30;;;;;;;;;;5040307;28;20230;-87
2023/04/26 03:47:05;;;;;;;3.87;2.50;;;;;;;;;;5053757;28;20199;-86
2023/04/26 03:49:32;;;;;;;3.80;2.63;;;;;;;;;;5047109;28;20217;-86
2023/04/26 03:52:00;;;;;;;4.23;2.60;;;;;;;;;;5040177;28;20207;-86
2023/04/26 03:54:27;;;;;;;3.97;2.60;;;;;;;;;;5045252;28;20204;-86
2023/04/26 03:56:54;;;;;;;3.37;2.60;;;;;;;;;;5048275;28;20207;-86
2023/04/26 03:59:25;;;;;;;3.23;2.57;;;;;;;;;;5045357;28;20239;-86
2023/04/26 04:01:52;;;;;;;3.87;2.60;;;;;;;;;;5047741;28;20294;-87
2023/04/26 04:04:19;;;;;;;4.67;2.63;;;;;;;;;;5046571;28;20223;-86
2023/04/26 04:06:47;;;;;;;3.47;2.60;;;;;;;;;;5047667;28;20204;-86
2023/04/26 04:09:14;;;;;;;2.80;2.30;;;;;;;;;;5043383;28;20208;-86
2023/04/26 04:11:41;;;;;;;6.67;2.57;;;;;;;;;;5046242;28;20199;-86
2023/04/26 04:14:09;;;;;;;2.70;2.50;;;;;;;;;;5038179;28;20200;-86
2023/04/26 04:16:38;;;;;;;3.23;2.33;;;;;;;;;;5052125;28;20289;-86
2023/04/26 04:19:05;;;;;;;5.13;3.10;;;;;;;;;;5045227;28;20207;-86
2023/04/26 04:21:32;;;;;;;4.80;2.70;;;;;;;;;;5044170;28;20214;-86
2023/04/26 04:24:00;;;;;;;5.00;2.60;;;;;;;;;;5049334;28;20322;-86
2023/04/26 04:26:27;;;;;;;4.93;2.70;;;;;;;;;;5045091;28;20230;-86
2023/04/26 04:28:56;;;;;;;4.13;2.80;;;;;;;;;;5047643;28;20222;-87
2023/04/26 04:31:23;;;;;;;4.03;3.00;;;;;;;;;;5047257;28;20227;-86
2023/04/26 04:33:52;;;;;;;4.83;2.70;;;;;;;;;;5047002;28;20204;-86
2023/04/26 04:36:19;;;;;;;3.50;2.70;;;;;;;;;;5052596;28;20200;-85
2023/04/26 04:38:47;;;;;;;3.70;2.60;;;;;;;;;;5041226;28;20210;-86
2023/04/26 04:41:14;;;;;;;5.00;3.00;;;;;;;;;;5045187;28;20198;-85
2023/04/26 04:43:42;;;;;;;4.67;3.03;;;;;;;;;;5050300;28;20221;-85
2023/04/26 04:46:09;;;;;;;3.67;2.63;;;;;;;;;;5046466;28;20202;-85
2023/04/26 04:48:37;;;;;;;6.97;2.90;;;;;;;;;;5053823;28;20269;-85
2023/04/26 04:51:06;;;;;;;4.77;3.20;;;;;;;;;;5048064;28;20204;-86
2023/04/26 04:53:34;;;;;;;4.83;3.10;;;;;;;;;;5044232;28;20203;-86
2023/04/26 04:56:01;;;;;;;4.17;3.30;;;;;;;;;;5047407;28;20282;-85
2023/04/26 04:58:28;;;;;;;7.40;3.73;;;;;;;;;;5050319;28;20194;-86
2023/04/26 05:00:59;;;;;;;3.83;3.03;;;;;;;;;;5048111;28;20282;-85
2023/04/26 05:03:27;;;;;;;5.33;3.10;;;;;;;;;;5042980;28;20214;-86
2023/04/26 05:05:54;;;;;;;4.50;3.20;;;;;;;;;;5041151;28;20291;-87
2023/04/26 05:08:23;;;;;;;5.40;2.97;;;;;;;;;;5048169;28;20286;-86
2023/04/26 05:10:50;;;;;;;5.97;2.93;;;;;;;;;;5046573;28;20207;-86
2023/04/26 05:13:18;;;;;;;5.73;3.17;;;;;;;;;;5044228;28;20214;-87
2023/04/26 05:15:45;;;;;;;3.70;3.10;;;;;;;;;;5041388;28;20204;-87
2023/04/26 05:18:12;;;;;;;4.63;3.07;;;;;;;;;;5051080;28;20211;-87
2023/04/26 05:20:40;;;;;;;5.67;3.20;;;;;;;;;;5052081;28;20234;-87
2023/04/26 05:23:07;;;;;;;6.13;3.17;;;;;;;;;;5052916;28;20207;-87
2023/04/26 05:25:39;;;;;;;4.03;3.53;;;;;;;;;;5047964;28;20219;-87
2023/04/26 05:28:11;;;;;;;5.97;3.70;;;;;;;;;;5047533;28;20208;-87
2023/04/26 05:30:38;;;;;;;5.67;3.37;;;;;;;;;;5043279;28;20199;-88
2023/04/26 05:33:06;;;;;;;5.53;3.33;;;;;;;;;;5046108;28;20283;-87
2023/04/26 05:35:34;;;;;;;5.10;3.33;;;;;;;;;;5039539;28;20197;-87
2023/04/26 05:38:01;;;;;;;8.53;3.73;;;;;;;;;;5047218;28;20208;-88
2023/04/26 05:40:29;;;;;;;3.77;3.40;;;;;;;;;;5045945;28;20211;-87
2023/04/26 05:42:58;;;;;;;4.97;3.50;;;;;;;;;;5044752;28;20204;-87
2023/04/26 05:45:28;;;;;;;3.97;3.37;;;;;;;;;;5036733;28;20220;-87
2023/04/26 05:47:56;;;;;;;4.70;3.90;;;;;;;;;;5037659;28;20203;-87
2023/04/26 05:50:23;;;;;;;9.10;3.97;;;;;;;;;;5046621;28;20200;-89
2023/04/26 05:52:51;;;;;;;3.40;3.00;;;;;;;;;;5034542;28;20241;-87
2023/04/26 05:55:18;;;;;;;5.60;3.30;;;;;;;;;;5040916;28;20231;-89
2023/04/26 05:57:46;;;;;;;6.47;3.53;;;;;;;;;;5045844;28;20196;-89
2023/04/26 06:00:19;;;;;;;4.97;3.57;;;;;;;;;;5046008;28;20204;-89
2023/04/26 06:02:46;;;;;;;5.00;3.10;;;;;;;;;;5044302;28;20203;-89
2023/04/26 06:05:13;;;;;;;5.20;3.47;;;;;;;;;;5054846;28;20231;-90
2023/04/26 06:07:41;;;;;;;4.17;2.87;;;;;;;;;;5051800;28;20214;-89
2023/04/26 06:10:09;;;;;;;6.13;3.13;;;;;;;;;;5053991;28;20207;-89
2023/04/26 06:12:36;;;;;;;5.10;2.80;;;;;;;;;;5048728;28;20227;-89
2023/04/26 06:15:03;;;;;;;5.13;3.50;;;;;;;;;;5050093;28;20207;-89
2023/04/26 06:17:32;;;;;;;3.20;2.90;;;;;;;;;;5051462;28;20208;-89
2023/04/26 06:20:00;;;;;;;6.17;3.03;;;;;;;;;;5053922;28;20237;-89
2023/04/26 06:22:27;;;;;;;3.37;2.80;;;;;;;;;;5045192;28;20204;-89
2023/04/26 06:24:55;;;;;;;4.90;3.17;;;;;;;;;;5047669;28;20219;-89
2023/04/26 06:27:22;;;;;;;4.37;3.00;;;;;;;;;;5050039;28;20211;-89
2023/04/26 06:29:50;;;;;;;3.23;2.80;;;;;;;;;;5049803;28;20208;-89
2023/04/26 06:32:17;;;;;;;4.07;3.20;;;;;;;;;;5048902;28;20239;-89
2023/04/26 06:34:46;;;;;;;3.73;3.43;;;;;;;;;;5044002;28;20210;-89
2023/04/26 06:37:13;;;;;;;8.07;3.63;;;;;;;;;;5046766;28;20203;-89
2023/04/26 06:39:41;;;;;;;4.20;3.63;;;;;;;;;;5045949;28;20207;-89
2023/04/26 06:42:08;;;;;;;4.00;3.17;;;;;;;;;;5047078;28;20202;-89
2023/04/26 06:44:35;;;;;;;4.83;3.20;;;;;;;;;;5043797;28;20227;-89
2023/04/26 06:47:03;;;;;;;6.27;3.93;;;;;;;;;;5052935;28;20207;-89
2023/04/26 06:49:30;;;;;;;6.20;3.20;;;;;;;;;;5050042;28;20203;-89
2023/04/26 06:51:59;;;;;;;4.60;3.20;;;;;;;;;;5045608;28;20199;-89
2023/04/26 06:54:28;;;;;;;5.20;3.60;;;;;;;;;;5044398;28;20210;-89
2023/04/26 06:56:55;;;;;;;7.37;3.27;;;;;;;;;;5047993;28;20206;-89
2023/04/26 06:59:23;;;;;;;9.00;6.00;;;;;;;;;;5046390;28;20215;-89
2023/04/26 07:01:50;;;;;;;5.57;4.23;;;;;;;;;;5044978;28;20200;-89
2023/04/26 07:04:19;;;;;;;4.83;3.60;;;;;;;;;;5048768;28;20233;-89
2023/04/26 07:06:47;;;;;;;7.53;3.47;;;;;;;;;;5045313;28;20203;-89
2023/04/26 07:09:16;;;;;;;4.17;2.90;;;;;;;;;;5049351;28;20203;-89
2023/04/26 07:11:43;;;;;;;5.93;3.10;;;;;;;;;;5043738;28;20204;-90
2023/04/26 07:14:12;;;;;;;6.10;3.27;;;;;;;;;;5045206;28;20200;-89
2023/04/26 07:16:39;;;;;;;5.13;3.40;;;;;;;;;;5046923;28;20200;-90
2023/04/26 07:19:08;;;;;;;4.60;3.37;;;;;;;;;;5051042;28;20213;-89
2023/04/26 07:21:36;;;;;;;5.43;3.40;;;;;;;;;;5051058;28;20203;-89
2023/04/26 07:24:03;;;;;;;6.93;2.90;;;;;;;;;;5046317;28;20235;-89
2023/04/26 07:26:32;;;;;;;5.37;2.80;;;;;;;;;;5046590;28;20234;-89
2023/04/26 07:29:00;;;;;;;4.90;2.90;;;;;;;;;;5045634;28;20204;-89
2023/04/26 07:31:27;;;;;;;5.67;2.80;;;;;;;;;;5037838;28;20234;-89
2023/04/26 07:33:54;;;;;;;4.10;2.67;;;;;;;;;;5049471;28;20295;-89
2023/04/26 07:36:22;;;;;;;5.47;2.70;;;;;;;;;;5034255;28;20226;-89
2023/04/26 07:38:50;;;;;;;3.60;2.53;;;;;;;;;;5042634;28;20303;-89
2023/04/26 07:41:18;;;;;;;5.70;3.03;;;;;;;;;;5039438;28;20204;-89
2023/04/26 07:43:46;;;;;;;5.53;2.67;;;;;;;;;;5037107;28;20202;-89
2023/04/26 07:46:14;;;;;;;6.10;3.07;;;;;;;;;;5044409;28;20218;-88
2023/04/26 07:48:41;;;;;;;3.20;2.80;;;;;;;;;;5041049;28;20211;-88
2023/04/26 07:51:09;;;;;;;7.17;3.17;;;;;;;;;;5048432;28;20203;-88
2023/04/26 07:53:37;;;;;;;3.70;3.07;;;;;;;;;;5048815;28;20249;-89
2023/04/26 07:56:05;;;;;;;9.57;3.10;;;;;;;;;;5046700;28;20218;-89
2023/04/26 07:58:32;;;;;;;6.43;3.40;;;;;;;;;;5049051;28;20357;-89
2023/04/26 08:01:02;;;;;;;3.77;2.97;;;;;;;;;;5046479;28;20211;-89
2023/04/26 08:03:30;;;;;;;3.63;2.97;;;;;;;;;;5039861;28;20208;-89
2023/04/26 08:05:57;;;;;;;5.43;3.37;;;;;;;;;;5050441;28;20231;-89
2023/04/26 08:08:26;;;;;;;6.33;3.60;;;;;;;;;;5048921;28;20227;-89
2023/04/26 08:10:54;;;;;;;4.37;3.20;;;;;;;;;;5042874;28;20262;-89
2023/04/26 08:13:22;;;;;;;7.30;4.00;;;;;;;;;;5035444;28;20206;-89
2023/04/26 08:15:49;;;;;;;8.57;3.50;;;;;;;;;;5052183;28;20294;-88
2023/04/26 08:18:17;;;;;;;6.23;3.43;;;;;;;;;;5044567;28;20196;-89
2023/04/26 08:20:45;;;;;;;4.87;3.20;;;;;;;;;;5052191;28;20200;-88
2023/04/26 08:23:13;;;;;;;5.33;3.33;;;;;;;;;;5043265;28;20229;-89
2023/04/26 08:25:40;;;;;;;5.10;3.13;;;;;;;;;;5052538;28;20212;-88
2023/04/26 08:28:08;;;;;;;5.43;3.53;;;;;;;;;;5047240;28;20266;-88
2023/04/26 08:30:35;;;;;;;7.67;3.60;;;;;;;;;;5048414;28;20207;-88
2023/04/26 08:33:02;;;;;;;5.47;3.67;;;;;;;;;;5045008;28;20310;-88
2023/04/26 08:35:31;;;;;;;6.07;3.33;;;;;;;;;;5055031;28;20211;-88
2023/04/26 08:37:59;;;;;;;6.80;3.63;;;;;;;;;;5046440;28;20286;-88
2023/04/26 08:40:30;;;;;;;5.50;3.20;;;;;;;;;;5055216;28;20207;-88
2023/04/26 08:42:57;;;;;;;3.83;3.10;;;;;;;;;;5051421;28;20268;-88
2023/04/26 08:45:25;;;;;;;6.90;3.50;;;;;;;;;;5053592;28;20277;-88
2023/04/26 08:47:54;;;;;;;6.77;3.27;;;;;;;;;;5055034;28;20422;-88
2023/04/26 08:50:22;;;;;;;4.50;3.20;;;;;;;;;;5047105;28;20200;-88
2023/04/26 08:52:51;;;;;;;7.33;3.30;;;;;;;;;;5055111;28;20267;-88
2023/04/26 08:55:20;;;;;;;7.17;3.77;;;;;;;;;;5050874;28;20218;-88
2023/04/26 08:57:48;;;;;;;8.30;3.67;;;;;;;;;;5054710;28;20226;-88
2023/04/26 09:00:16;;;;;;;6.57;3.83;;;;;;;;;;5044468;28;20212;-88
2023/04/26 09:02:47;;;;;;;5.27;3.07;;;;;;;;;;5047470;28;20195;-88
2023/04/26 09:05:14;;;;;;;6.03;3.40;;;;;;;;;;5042943;28;20230;-88
2023/04/26 09:07:43;;;;;;;6.30;3.67;;;;;;;;;;5050107;28;20211;-88
2023/04/26 09:10:13;;;;;;;4.50;2.90;;;;;;;;;;5050954;28;20207;-88
2023/04/26 09:12:44;;;;;;;6.60;3.43;;;;;;;;;;5040127;28;20204;-88
2023/04/26 09:15:11;;;;;;;5.07;3.57;;;;;;;;;;5043202;28;20199;-88
2023/04/26 09:17:40;;;;;;;4.67;3.13;;;;;;;;;;5051861;28;20207;-88
2023/04/26 09:20:21;;;;;;;5.37;3.10;;;;;;;;;;5048963;28;20218;-88
2023/04/26 09:22:49;;;;;;;4.93;3.10;;;;;;;;;;5055288;28;20210;-88
2023/04/26 09:25:19;;;;;;;6.97;3.33;;;;;;;;;;5040655;28;20216;-88
2023/04/26 09:27:47;;;;;;;7.10;3.27;;;;;;;;;;5047285;28;20199;-88
2023/04/26 09:30:16;;;;;;;7.43;3.20;;;;;;;;;;5051655;28;20242;-88
2023/04/26 09:32:47;;;;;;;5.50;3.10;;;;;;;;;;5043344;28;20223;-88
2023/04/26 09:35:26;;;;;;;5.13;2.90;;;;;;;;;;5041565;28;20211;-88
2023/04/26 09:37:58;;;;;;;4.03;2.93;;;;;;;;;;5045965;28;20203;-88
2023/04/26 09:40:29;;;;;;;5.37;2.80;;;;;;;;;;5054913;28;20207;-88
2023/04/26 09:43:02;;;;;;;7.80;2.70;;;;;;;;;;5045910;28;20282;-88
2023/04/26 09:45:30;;;;;;;7.20;3.10;;;;;;;;;;5038839;28;20215;-88
2023/04/26 09:48:13;;;;;;;9.47;2.97;;;;;;;;;;5042092;28;20216;-88
2023/04/26 09:50:41;;;;;;;3.77;2.80;;;;;;;;;;5044728;28;20238;-88
2023/04/26 09:53:09;;;;;;;6.23;2.90;;;;;;;;;;5051130;28;20257;-88
2023/04/26 09:55:38;;;;;;;6.60;3.03;;;;;;;;;;5048857;28;20288;-88
2023/04/26 09:58:09;;;;;;;5.77;2.80;;;;;;;;;;5047677;28;20204;-88
2023/04/26 10:00:39;;;;;;;4.93;2.67;;;;;;;;;;5050745;28;20231;-88
2023/04/26 10:03:09;;;;;;;7.73;2.70;;;;;;;;;;5043621;28;20216;-88
2023/04/26 10:05:37;;;;;;;4.40;2.70;;;;;;;;;;5044199;28;20311;-88
2023/04/26 10:08:07;;;;;;;6.40;2.63;;;;;;;;;;5039963;28;20231;-89
2023/04/26 10:10:34;;;;;;;4.10;2.60;;;;;;;;;;5047634;28;20207;-88
2023/04/26 10:13:04;;;;;;;7.50;2.93;;;;;;;;;;5045563;28;20207;-88
2023/04/26 10:15:32;;;;;;;5.27;2.90;;;;;;;;;;5047319;28;20260;-88
2023/04/26 10:18:00;;;;;;;5.73;2.80;;;;;;;;;;5039441;28;20216;-89
2023/04/26 10:20:30;;;;;;;6.27;2.80;;;;;;;;;;5047184;28;20203;-88
2023/04/26 10:23:00;;;;;;;3.67;2.20;;;;;;;;;;5048663;28;20199;-88
2023/04/26 10:25:37;;;;;;;3.97;2.60;;;;;;;;;;5045583;28;20207;-88
2023/04/26 10:28:07;;;;;;;5.43;3.00;;;;;;;;;;5039972;28;20215;-88
2023/04/26 10:30:54;;;;;;;2.97;2.13;;;;;;;;;;5043642;28;20382;-88
2023/04/26 10:33:22;;;;;;;3.53;2.03;;;;;;;;;;5043783;28;20212;-88
2023/04/26 10:36:02;;;;;;;3.78;2.22;;;;;;;;;;5049235;28;20254;-87
2023/04/26 10:38:30;;;;;;;4.53;2.35;;;;;;;;;;5035723;28;20261;-88
2023/04/26 10:41:13;;;;;;;4.40;2.40;;;;;;;;;;5046634;28;20217;-88
2023/04/26 10:43:42;;;;;;;3.70;2.67;;;;;;;;;;5052645;28;20207;-88
2023/04/26 10:46:24;;;;;;;5.45;2.60;;;;;;;;;;5035390;28;20274;-88
2023/04/26 10:48:52;;;;;;;5.82;2.78;;;;;;;;;;5047173;28;20196;-88
2023/04/26 10:51:19;;;;;;;5.13;2.97;;;;;;;;;;5047771;28;20206;-88
2023/04/26 10:54:03;;;;;;;5.40;2.72;;;;;;;;;;5047468;28;20222;-88
2023/04/26 10:56:49;;;;;;;3.90;2.50;;;;;;;;;;5038707;28;20208;-88
2023/04/26 10:59:21;;;;;;;3.95;2.20;;;;;;;;;;5046511;28;20261;-88
2023/04/26 11:01:49;;;;;;;6.68;2.88;;;;;;;;;;5046798;28;20215;-88
2023/04/26 11:04:17;;;;;;;4.60;2.50;;;;;;;;;;5044216;28;20207;-88
2023/04/26 11:06:49;;;;;;;7.13;2.67;;;;;;;;;;5048276;28;20226;-88
2023/04/26 11:09:36;;;;;;;5.97;2.67;;;;;;;;;;5042237;28;20204;-88
2023/04/26 11:12:07;;;;;;;4.28;2.40;;;;;;;;;;5048105;28;20210;-88
2023/04/26 11:14:38;;;;;;;3.22;2.00;;;;;;;;;;5035150;28;20260;-88
2023/04/26 11:17:07;;;;;;;3.95;2.17;;;;;;;;;;5040523;28;20208;-88
2023/04/26 11:19:34;;;;;;;3.78;2.30;;;;;;;;;;5050515;28;20294;-88
2023/04/26 11:22:02;;;;;;;5.03;2.70;;;;;;;;;;5039222;28;20195;-87
2023/04/26 11:24:32;;;;;;;5.93;2.70;;;;;;;;;;5045312;28;20210;-87
2023/04/26 11:27:01;;;;;;;4.97;2.30;;;;;;;;;;5046736;28;20243;-87
2023/04/26 11:29:30;;;;;;;3.03;2.03;;;;;;;;;;5045458;28;20215;-88
2023/04/26 11:31:59;;;;;;;3.03;2.03;;;;;;;;;;5006633;28;1257925;-88
2023/04/26 11:34:34;;;;;;;5.28;2.55;;;;;;;;;;5047253;28;20214;-87
2023/04/26 11:37:03;;;;;;;3.05;2.20;;;;;;;;;;5048313;28;20206;-87
2023/04/26 11:39:31;;;;;;;4.95;2.00;;;;;;;;;;5045605;28;20211;-88
2023/04/26 11:42:06;;;;;;;3.53;2.17;;;;;;;;;;5035644;28;20223;-87
2023/04/26 11:44:34;;;;;;;4.47;2.10;;;;;;;;;;5050316;28;20210;-88
2023/04/26 11:47:03;;;;;;;4.10;2.45;;;;;;;;;;5047035;28;20254;-88
2023/04/26 11:49:31;;;;;;;4.75;2.20;;;;;;;;;;5047373;28;20223;-87
2023/04/26 11:51:59;;;;;;;3.00;2.05;;;;;;;;;;5040095;28;20262;-88
2023/04/26 11:54:30;;;;;;;3.47;2.00;;;;;;;;;;5056025;28;20210;-87
2023/04/26 11:56:58;;;;;;;2.83;1.90;;;;;;;;;;5051770;28;20208;-87
2023/04/26 11:59:26;;;;;;;2.10;1.90;;;;;;;;;;5043702;28;20208;-87
2023/04/26 12:01:54;;;;;;;4.32;2.20;;;;;;;;;;5043405;28;20227;-87
2023/04/26 12:04:29;;;;;;;4.93;2.10;;;;;;;;;;5049403;28;20218;-87
2023/04/26 12:06:57;;;;;;;4.03;1.98;;;;;;;;;;5053145;28;20238;-87
2023/04/26 12:09:25;;;;;;;2.40;1.77;;;;;;;;;;5044161;28;20210;-87
2023/04/26 12:11:59;;;;;;;4.28;2.10;;;;;;;;;;5052805;28;20203;-87
2023/04/26 12:14:31;;;;;;;5.93;2.15;;;;;;;;;;5048516;28;20242;-89
2023/04/26 12:17:00;;;;;;;4.07;2.15;;;;;;;;;;5045117;28;20214;-88
2023/04/26 12:19:29;;;;;;;4.38;2.08;;;;;;;;;;5053296;28;20217;-88
2023/04/26 12:21:56;;;;;;;4.78;2.08;;;;;;;;;;5057542;28;20249;-89
2023/04/26 12:24:24;;;;;;;3.00;2.08;;;;;;;;;;5043634;28;20218;-88
2023/04/26 12:26:52;;;;;;;3.65;2.17;;;;;;;;;;5051818;28;20310;-88
2023/04/26 12:29:19;;;;;;;3.63;2.10;;;;;;;;;;5055394;28;20217;-88
2023/04/26 12:31:47;;;;;;;3.85;2.50;;;;;;;;;;5044708;28;20318;-88
2023/04/26 12:34:14;;;;;;;4.80;2.35;;;;;;;;;;5055057;28;20204;-88
2023/04/26 12:36:43;;;;;;;4.45;1.95;;;;;;;;;;5049305;28;20208;-88
2023/04/26 12:39:12;;;;;;;3.40;2.10;;;;;;;;;;5045416;28;20219;-88
2023/04/26 12:41:39;;;;;;;4.93;2.00;;;;;;;;;;5047297;28;20254;-88
2023/04/26 12:44:07;;;;;;;4.22;2.20;;;;;;;;;;5055168;28;20226;-88
2023/04/26 12:46:34;;;;;;;4.20;1.95;;;;;;;;;;5047421;28;20251;-88
2023/04/26 12:49:02;;;;;;;4.43;1.90;;;;;;;;;;5045509;28;20219;-88
2023/04/26 12:51:30;;;;;;;3.38;1.85;;;;;;;;;;5029014;28;20261;-88
2023/04/26 12:53:59;;;;;;;2.47;1.88;;;;;;;;;;5042931;28;20212;-88
2023/04/26 12:56:26;;;;;;;2.97;1.73;;;;;;;;;;5046706;28;20215;-88
2023/04/26 12:58:54;;;;;;;3.80;1.85;;;;;;;;;;5050187;28;20227;-88
2023/04/26 13:01:21;;;;;;;2.80;2.03;;;;;;;;;;5045913;28;20262;-88
2023/04/26 13:03:48;;;;;;;6.55;2.28;;;;;;;;;;5048490;28;20300;-88
2023/04/26 13:06:16;;;;;;;5.35;1.83;;;;;;;;;;5053049;28;20216;-88
2023/04/26 13:08:43;;;;;;;4.00;1.90;;;;;;;;;;5046244;28;20203;-88
2023/04/26 13:11:12;;;;;;;6.35;2.40;;;;;;;;;;5046430;28;20239;-88
2023/04/26 13:13:40;;;;;;;4.00;1.88;;;;;;;;;;5048999;28;20200;-88
2023/04/26 13:16:07;;;;;;;5.68;2.08;;;;;;;;;;5051022;28;20219;-88
2023/04/26 13:18:35;;;;;;;3.25;1.77;;;;;;;;;;5044086;28;20212;-88
2023/04/26 13:21:02;;;;;;;3.72;1.95;;;;;;;;;;5038030;28;20204;-89
2023/04/26 13:23:29;;;;;;;3.50;2.10;;;;;;;;;;5054701;28;20271;-89
2023/04/26 13:25:57;;;;;;;2.95;1.90;;;;;;;;;;5050465;28;20217;-88
2023/04/26 13:28:25;;;;;;;4.32;2.13;;;;;;;;;;5045010;28;20220;-88
2023/04/26 13:30:52;;;;;;;3.28;2.10;;;;;;;;;;5051404;28;20235;-88
2023/04/26 13:33:20;;;;;;;4.20;2.47;;;;;;;;;;5049569;28;20290;-88
2023/04/26 13:35:47;;;;;;;3.25;1.95;;;;;;;;;;5039308;28;20212;-88
2023/04/26 13:38:15;;;;;;;3.05;1.60;;;;;;;;;;5055520;28;20207;-88
2023/04/26 13:40:42;;;;;;;3.92;1.80;;;;;;;;;;5035300;28;20207;-88
2023/04/26 13:43:09;;;;;;;4.60;2.40;;;;;;;;;;5047309;28;20204;-88
2023/04/26 13:45:38;;;;;;;3.42;2.20;;;;;;;;;;5043106;28;20213;-89
2023/04/26 13:48:05;;;;;;;4.78;2.63;;;;;;;;;;5048505;28;20234;-88
2023/04/26 13:50:33;;;;;;;3.70;2.17;;;;;;;;;;5052592;28;20207;-87
2023/04/26 13:53:00;;;;;;;3.28;2.13;;;;;;;;;;5036857;28;20202;-88
2023/04/26 13:55:28;;;;;;;2.92;2.22;;;;;;;;;;5041960;28;20208;-88
2023/04/26 13:57:55;;;;;;;2.78;2.20;;;;;;;;;;5049338;28;20299;-88
2023/04/26 14:00:23;;;;;;;2.17;1.63;;;;;;;;;;5044691;28;20204;-88
2023/04/26 14:02:52;;;;;;;3.90;1.90;;;;;;;;;;5035125;28;20212;-88
2023/04/26 14:05:19;;;;;;;2.83;1.60;;;;;;;;;;5044808;28;20208;-88
2023/04/26 14:07:47;;;;;;;4.35;2.35;;;;;;;;;;5038878;28;20231;-88
2023/04/26 14:10:14;;;;;;;4.40;2.30;;;;;;;;;;5042545;28;20204;-88
2023/04/26 14:12:42;;;;;;;3.38;2.00;;;;;;;;;;5046407;28;20207;-88
2023/04/26 14:15:10;;;;;;;3.83;1.83;;;;;;;;;;5037972;28;20245;-88
2023/04/26 14:17:37;;;;;;;4.93;2.00;;;;;;;;;;5054631;28;20219;-88
2023/04/26 14:20:09;;;;;;;3.13;2.20;;;;;;;;;;5053351;28;20206;-88
2023/04/26 14:22:36;;;;;;;2.47;1.80;;;;;;;;;;5040257;28;20199;-88
2023/04/26 14:25:04;;;;;;;3.63;2.13;;;;;;;;;;5054065;28;20212;-88
2023/04/26 14:27:31;;;;;;;2.83;2.00;;;;;;;;;;5043214;28;20233;-88
2023/04/26 14:29:59;;;;;;;2.90;2.00;;;;;;;;;;5046340;28;20217;-88
2023/04/26 14:32:26;;;;;;;2.65;1.83;;;;;;;;;;5038676;28;20301;-88
2023/04/26 14:34:54;;;;;;;2.90;1.77;;;;;;;;;;5034558;28;20239;-88
2023/04/26 14:37:22;;;;;;;5.88;4.00;;;;;;;;;;5047720;28;20214;-88
2023/04/26 14:39:50;;;;;;;3.75;2.28;;;;;;;;;;5042906;28;20241;-88
2023/04/26 14:42:17;;;;;;;5.65;2.13;;;;;;;;;;5041443;28;20307;-88
2023/04/26 14:44:46;;;;;;;4.53;2.13;;;;;;;;;;5053649;28;20208;-88
2023/04/26 14:47:13;;;;;;;6.70;2.08;;;;;;;;;;5036112;28;20235;-89
2023/04/26 14:49:41;;;;;;;5.00;2.10;;;;;;;;;;5034595;28;20216;-88